McNally, Iowa
Current Conditions -  °F | °C
As of 6:35 AM on Tuesday 27 Jan 2015 (Local Time) from KORC Reporting Station
Light Snow Light Snow  
Wind Chill: 26°   Ceiling: 200
Heat Index: 32°   Visibility: 0.25mi
Dew Point: 30°   Wind: 7mph
Humidity: 93%   Direction: 90°E
Pressure: 30.08"   Gusts: NA
Location:  42.9537°N, 96.3242°W
Report Text: KORC 271235Z AUTO 09006KT 1/4SM -SN OVC002 00/M01 A3008 RMK AO2
Loading
Personal Weather Stations






























Interactive Weather Map New forecast layout! Learn more

10-Day Weather Forecast

Advertisements
Track Severe Weather on mobile